Forestfire from: 22-05-2018 23:00 until: 23-05-2018 22:59 warning for: Forestfire level: Yellow info button

Nearby METAR Reports

 

ENZV - Stavanger
Päivitetty: 22/05/2018 17:20
Selkeätä
Selkeätä
 Tuulen suunta LLU
Tuuli: LLU 26 km/h
Lämpötila: 15°C
Kastepiste: 10°C
Kosteus: 72%
Ilmanpaine: 1021 hPa
Yhteenveto: Selkeätä
Visibility: greater than 10 km
2018/05/22 15:20 ENZV 221520Z 29014KT CAVOK 15/10 Q1021 NOSIG
ENBR - Bergen
Päivitetty: 22/05/2018 17:20
Selkeätä
Selkeätä
 Tuulen suunta PLU
Tuuli: PLU 20 km/h
Lämpötila: 17°C
Kastepiste: 7°C
Kosteus: 52%
Ilmanpaine: 1021 hPa
Yhteenveto: Selkeätä
Visibility: greater than 10 km
2018/05/22 15:20 ENBR 221520Z 33011KT CAVOK 17/07 Q1021 NOSIG RMK WIND 1200FT 31007KT
 
ENHD - Haugesund
Päivitetty: 22/05/2018 17:20
Selkeätä
Selkeätä
 Tuulen suunta P
Tuuli: P 24 km/h
Lämpötila: 13°C
Kastepiste: 9°C
Kosteus: 77%
Ilmanpaine: 1021 hPa
Yhteenveto: Selkeätä
Visibility: greater than 10 km
2018/05/22 15:20 ENHD 221520Z 35013KT CAVOK 13/09 Q1021
ENCN - Kristiansand
Päivitetty: 22/05/2018 17:20
Selkeätä
Selkeätä
 Tuulen suunta ELO
Tuuli: ELO 17 km/h
Lämpötila: 19°C
Kastepiste: 8°C
Kosteus: 49%
Ilmanpaine: 1019 hPa
Yhteenveto: Selkeätä
Visibility: greater than 10 km
2018/05/22 15:20 ENCN 221520Z 20009KT CAVOK 19/08 Q1019
 
ENBO - Bodø
Päivitetty: 22/05/2018 17:20
Puolipilvistä
Puolipilvistä
 Tuulen suunta LLO
Tuuli: LLO 22 km/h
Lämpötila: 9°C
Wind Chill: 6°C
Kastepiste: 4°C
Kosteus: 71%
Ilmanpaine: 1026 hPa
Clouds: Puolipilvistä
Visibility: 10 km
2018/05/22 15:20 ENBO 221520Z 24012KT 9999 FEW020 SCT200 09/04 Q1026 NOSIG
ENKR - Kirkenes
Päivitetty: 22/05/2018 17:20
Nearby showers, partly cloudy
Nearby showers, partly cloudy
 Tuulen suunta P
Tuuli: P 24 km/h
Lämpötila: 12°C
Kastepiste: 5°C
Kosteus: 63%
Ilmanpaine: 1014 hPa
Yhteenveto: Nearby showers
Clouds: Puolipilvistä
Visibility: 10 km
2018/05/22 15:20 ENKR 221520Z 36013KT 9999 VCSH FEW015 SCT070 12/05 Q1014 RMK WIND 731FT 35016KT
 
ENVA - Trondheim
Päivitetty: 22/05/2018 17:20
Enimmäkseen pilvistä
Enimmäkseen pilvistä
 Tuulen suunta PLU
Tuuli: PLU 20 km/h
Lämpötila: 12°C
Kastepiste: 7°C
Kosteus: 72%
Ilmanpaine: 1025 hPa
Clouds: Enimmäkseen pilvistä
Visibility: 10 km
2018/05/22 15:20 ENVA 221520Z 33011KT 9999 SCT013 BKN020 12/07 Q1025 NOSIG RMK WIND 670FT 33012KT
ENGM - Oslo
Päivitetty: 22/05/2018 17:20
Selkeätä
Selkeätä
 Tuulen suunta LO
Tuuli: LO 13 km/h
Lämpötila: 23°C
Kastepiste: -2°C
Kosteus: 19%
Ilmanpaine: 1017 hPa
Yhteenveto: Selkeätä
Visibility: greater than 10 km
2018/05/22 15:20 ENGM 221520Z 22007KT 180V270 CAVOK 23/M02 Q1017 NOSIG